sensor_id;sensor_type;location;lat;lon;timestamp;P1;durP1;ratioP1;P2;durP2;ratioP2
22774;SDS011;11554;51.106;3.684;2023-03-01T00:00:00;10.80;;;7.10;;
22774;SDS011;11554;51.106;3.684;2023-03-01T00:05:00;10.90;;;7.70;;
22774;SDS011;11554;51.106;3.684;2023-03-01T00:10:00;11.80;;;7.40;;
22774;SDS011;11554;51.106;3.684;2023-03-01T00:15:00;11.80;;;7.40;;
22774;SDS011;11554;51.106;3.684;2023-03-01T00:20:00;13.70;;;7.40;;
22774;SDS011;11554;51.106;3.684;2023-03-01T00:25:00;13.70;;;7.40;;
22774;SDS011;11554;51.106;3.684;2023-03-01T00:30:00;11.90;;;7.40;;
22774;SDS011;11554;51.106;3.684;2023-03-01T00:35:00;11.90;;;7.40;;
22774;SDS011;11554;51.106;3.684;2023-03-01T00:40:00;13.00;;;7.40;;
22774;SDS011;11554;51.106;3.684;2023-03-01T00:45:00;13.00;;;7.40;;
22774;SDS011;11554;51.106;3.684;2023-03-01T00:50:00;12.60;;;8.10;;
22774;SDS011;11554;51.106;3.684;2023-03-01T00:55:00;12.60;;;8.10;;
22774;SDS011;11554;51.106;3.684;2023-03-01T01:00:00;11.00;;;7.80;;
22774;SDS011;11554;51.106;3.684;2023-03-01T01:05:00;11.00;;;7.80;;
22774;SDS011;11554;51.106;3.684;2023-03-01T01:10:00;13.80;;;8.50;;
22774;SDS011;11554;51.106;3.684;2023-03-01T01:15:00;13.80;;;8.50;;
22774;SDS011;11554;51.106;3.684;2023-03-01T01:20:00;15.00;;;9.20;;
22774;SDS011;11554;51.106;3.684;2023-03-01T01:25:00;15.00;;;9.20;;
22774;SDS011;11554;51.106;3.684;2023-03-01T01:30:00;11.00;;;8.00;;
22774;SDS011;11554;51.106;3.684;2023-03-01T01:35:00;11.00;;;8.00;;
22774;SDS011;11554;51.106;3.684;2023-03-01T01:40:01;12.90;;;8.50;;
22774;SDS011;11554;51.106;3.684;2023-03-01T01:50:01;13.50;;;8.90;;
22774;SDS011;11554;51.106;3.684;2023-03-01T01:55:03;13.50;;;8.90;;
22774;SDS011;11554;51.106;3.684;2023-03-01T02:00:04;16.40;;;9.80;;
22774;SDS011;11554;51.106;3.684;2023-03-01T02:05:05;16.40;;;9.80;;
22774;SDS011;11554;51.106;3.684;2023-03-01T02:10:00;16.50;;;10.90;;
22774;SDS011;11554;51.106;3.684;2023-03-01T02:15:00;16.50;;;10.90;;
22774;SDS011;11554;51.106;3.684;2023-03-01T02:20:10;14.30;;;9.90;;
22774;SDS011;11554;51.106;3.684;2023-03-01T02:25:09;14.30;;;9.90;;
22774;SDS011;11554;51.106;3.684;2023-03-01T02:30:00;19.10;;;11.20;;
22774;SDS011;11554;51.106;3.684;2023-03-01T02:35:01;19.10;;;11.20;;
22774;SDS011;11554;51.106;3.684;2023-03-01T02:40:06;18.40;;;11.90;;
22774;SDS011;11554;51.106;3.684;2023-03-01T02:45:00;18.40;;;11.90;;
22774;SDS011;11554;51.106;3.684;2023-03-01T02:50:00;18.60;;;12.10;;
22774;SDS011;11554;51.106;3.684;2023-03-01T02:55:02;18.60;;;12.10;;
22774;SDS011;11554;51.106;3.684;2023-03-01T03:00:03;20.50;;;12.70;;
22774;SDS011;11554;51.106;3.684;2023-03-01T03:05:00;20.50;;;12.70;;
22774;SDS011;11554;51.106;3.684;2023-03-01T03:10:02;19.50;;;12.10;;
22774;SDS011;11554;51.106;3.684;2023-03-01T03:15:00;19.50;;;12.10;;
22774;SDS011;11554;51.106;3.684;2023-03-01T03:20:00;22.00;;;13.00;;
22774;SDS011;11554;51.106;3.684;2023-03-01T03:25:00;22.00;;;13.00;;
22774;SDS011;11554;51.106;3.684;2023-03-01T03:30:00;18.40;;;12.00;;
22774;SDS011;11554;51.106;3.684;2023-03-01T03:35:00;18.40;;;12.00;;
22774;SDS011;11554;51.106;3.684;2023-03-01T03:40:00;19.60;;;12.30;;
22774;SDS011;11554;51.106;3.684;2023-03-01T03:45:00;19.60;;;12.30;;
22774;SDS011;11554;51.106;3.684;2023-03-01T03:50:00;23.70;;;14.20;;
22774;SDS011;11554;51.106;3.684;2023-03-01T03:55:00;23.70;;;14.20;;
22774;SDS011;11554;51.106;3.684;2023-03-01T04:00:00;24.00;;;14.50;;
22774;SDS011;11554;51.106;3.684;2023-03-01T04:05:00;24.00;;;14.50;;
22774;SDS011;11554;51.106;3.684;2023-03-01T04:10:00;25.20;;;15.10;;
22774;SDS011;11554;51.106;3.684;2023-03-01T04:15:00;25.20;;;15.10;;
22774;SDS011;11554;51.106;3.684;2023-03-01T04:20:00;27.60;;;15.30;;
22774;SDS011;11554;51.106;3.684;2023-03-01T04:25:00;27.60;;;15.30;;
22774;SDS011;11554;51.106;3.684;2023-03-01T04:30:00;26.10;;;14.70;;
22774;SDS011;11554;51.106;3.684;2023-03-01T04:35:00;26.10;;;14.70;;
22774;SDS011;11554;51.106;3.684;2023-03-01T04:40:00;26.30;;;14.20;;
22774;SDS011;11554;51.106;3.684;2023-03-01T04:45:00;26.30;;;14.20;;
22774;SDS011;11554;51.106;3.684;2023-03-01T04:50:00;24.00;;;15.00;;
22774;SDS011;11554;51.106;3.684;2023-03-01T04:55:00;24.00;;;15.00;;
22774;SDS011;11554;51.106;3.684;2023-03-01T05:00:00;20.90;;;14.10;;
22774;SDS011;11554;51.106;3.684;2023-03-01T05:05:00;20.90;;;14.10;;
22774;SDS011;11554;51.106;3.684;2023-03-01T05:10:00;24.80;;;15.30;;
22774;SDS011;11554;51.106;3.684;2023-03-01T05:15:00;24.80;;;15.30;;
22774;SDS011;11554;51.106;3.684;2023-03-01T05:20:00;23.50;;;14.30;;
22774;SDS011;11554;51.106;3.684;2023-03-01T05:25:00;23.50;;;14.30;;
22774;SDS011;11554;51.106;3.684;2023-03-01T05:30:00;23.70;;;14.90;;
22774;SDS011;11554;51.106;3.684;2023-03-01T05:35:00;23.70;;;14.90;;
22774;SDS011;11554;51.106;3.684;2023-03-01T05:40:00;23.20;;;14.90;;
22774;SDS011;11554;51.106;3.684;2023-03-01T05:45:00;23.20;;;14.90;;
22774;SDS011;11554;51.106;3.684;2023-03-01T05:50:00;23.30;;;14.10;;
22774;SDS011;11554;51.106;3.684;2023-03-01T05:55:00;23.30;;;14.10;;
22774;SDS011;11554;51.106;3.684;2023-03-01T06:00:00;22.80;;;14.50;;
22774;SDS011;11554;51.106;3.684;2023-03-01T06:05:00;22.80;;;14.50;;
22774;SDS011;11554;51.106;3.684;2023-03-01T06:10:01;23.70;;;14.50;;
22774;SDS011;11554;51.106;3.684;2023-03-01T06:15:00;23.70;;;14.50;;
22774;SDS011;11554;51.106;3.684;2023-03-01T06:20:00;23.40;;;15.00;;
22774;SDS011;11554;51.106;3.684;2023-03-01T06:25:00;23.40;;;15.00;;
22774;SDS011;11554;51.106;3.684;2023-03-01T06:30:00;22.80;;;14.20;;
22774;SDS011;11554;51.106;3.684;2023-03-01T06:35:00;22.80;;;14.20;;
22774;SDS011;11554;51.106;3.684;2023-03-01T06:40:00;20.80;;;12.70;;
22774;SDS011;11554;51.106;3.684;2023-03-01T06:45:00;20.80;;;12.70;;
22774;SDS011;11554;51.106;3.684;2023-03-01T06:50:00;20.70;;;12.60;;
22774;SDS011;11554;51.106;3.684;2023-03-01T06:55:00;20.70;;;12.60;;
22774;SDS011;11554;51.106;3.684;2023-03-01T07:00:00;20.00;;;12.40;;
22774;SDS011;11554;51.106;3.684;2023-03-01T07:05:00;20.00;;;12.40;;
22774;SDS011;11554;51.106;3.684;2023-03-01T07:10:00;21.50;;;13.00;;
22774;SDS011;11554;51.106;3.684;2023-03-01T07:15:00;21.50;;;13.00;;
22774;SDS011;11554;51.106;3.684;2023-03-01T07:20:00;27.00;;;16.00;;
22774;SDS011;11554;51.106;3.684;2023-03-01T07:25:00;27.00;;;16.00;;
22774;SDS011;11554;51.106;3.684;2023-03-01T07:30:00;33.40;;;19.70;;
22774;SDS011;11554;51.106;3.684;2023-03-01T07:35:00;33.40;;;19.70;;
22774;SDS011;11554;51.106;3.684;2023-03-01T07:40:00;28.40;;;18.30;;
22774;SDS011;11554;51.106;3.684;2023-03-01T07:45:00;28.40;;;18.30;;
22774;SDS011;11554;51.106;3.684;2023-03-01T07:50:00;26.20;;;14.90;;
22774;SDS011;11554;51.106;3.684;2023-03-01T07:55:00;26.20;;;14.90;;
22774;SDS011;11554;51.106;3.684;2023-03-01T08:00:00;19.80;;;14.30;;
22774;SDS011;11554;51.106;3.684;2023-03-01T08:05:00;19.80;;;14.30;;
22774;SDS011;11554;51.106;3.684;2023-03-01T08:10:00;20.90;;;12.80;;
22774;SDS011;11554;51.106;3.684;2023-03-01T08:15:00;20.90;;;12.80;;
22774;SDS011;11554;51.106;3.684;2023-03-01T08:20:00;17.40;;;11.60;;
22774;SDS011;11554;51.106;3.684;2023-03-01T08:25:00;17.40;;;11.60;;
22774;SDS011;11554;51.106;3.684;2023-03-01T08:30:00;16.30;;;11.00;;
22774;SDS011;11554;51.106;3.684;2023-03-01T08:35:00;16.30;;;11.00;;
22774;SDS011;11554;51.106;3.684;2023-03-01T08:40:00;15.40;;;10.40;;
22774;SDS011;11554;51.106;3.684;2023-03-01T08:45:00;15.40;;;10.40;;
22774;SDS011;11554;51.106;3.684;2023-03-01T08:50:00;19.60;;;11.60;;
22774;SDS011;11554;51.106;3.684;2023-03-01T08:55:00;19.60;;;11.60;;
22774;SDS011;11554;51.106;3.684;2023-03-01T09:00:00;15.40;;;9.10;;
22774;SDS011;11554;51.106;3.684;2023-03-01T09:05:00;15.40;;;9.10;;
22774;SDS011;11554;51.106;3.684;2023-03-01T09:10:00;12.10;;;7.50;;
22774;SDS011;11554;51.106;3.684;2023-03-01T09:15:00;12.10;;;7.50;;
22774;SDS011;11554;51.106;3.684;2023-03-01T09:20:00;12.80;;;7.20;;
22774;SDS011;11554;51.106;3.684;2023-03-01T09:25:00;12.80;;;7.20;;
22774;SDS011;11554;51.106;3.684;2023-03-01T09:30:00;11.60;;;7.70;;
22774;SDS011;11554;51.106;3.684;2023-03-01T09:35:00;11.60;;;7.70;;
22774;SDS011;11554;51.106;3.684;2023-03-01T09:40:00;12.50;;;7.90;;
22774;SDS011;11554;51.106;3.684;2023-03-01T09:45:03;12.50;;;7.90;;
22774;SDS011;11554;51.106;3.684;2023-03-01T09:50:05;14.20;;;9.00;;
22774;SDS011;11554;51.106;3.684;2023-03-01T09:55:00;14.20;;;9.00;;
22774;SDS011;11554;51.106;3.684;2023-03-01T10:00:12;12.80;;;7.70;;
22774;SDS011;11554;51.106;3.684;2023-03-01T10:05:12;12.80;;;7.70;;
22774;SDS011;11554;51.106;3.684;2023-03-01T10:10:00;10.80;;;7.40;;
22774;SDS011;11554;51.106;3.684;2023-03-01T10:15:06;10.80;;;7.40;;
22774;SDS011;11554;51.106;3.684;2023-03-01T10:20:15;12.40;;;7.80;;
22774;SDS011;11554;51.106;3.684;2023-03-01T10:25:02;12.40;;;7.80;;
22774;SDS011;11554;51.106;3.684;2023-03-01T10:30:07;15.00;;;7.50;;
22774;SDS011;11554;51.106;3.684;2023-03-01T10:35:00;15.00;;;7.50;;
22774;SDS011;11554;51.106;3.684;2023-03-01T10:40:03;13.90;;;7.60;;
22774;SDS011;11554;51.106;3.684;2023-03-01T10:50:03;13.00;;;7.70;;
22774;SDS011;11554;51.106;3.684;2023-03-01T10:55:03;13.00;;;7.70;;
22774;SDS011;11554;51.106;3.684;2023-03-01T11:00:14;11.60;;;6.90;;
22774;SDS011;11554;51.106;3.684;2023-03-01T11:05:02;11.60;;;6.90;;
22774;SDS011;11554;51.106;3.684;2023-03-01T11:10:11;12.20;;;5.60;;
22774;SDS011;11554;51.106;3.684;2023-03-01T11:15:00;12.20;;;5.60;;
22774;SDS011;11554;51.106;3.684;2023-03-01T11:20:02;12.40;;;7.30;;
22774;SDS011;11554;51.106;3.684;2023-03-01T11:25:00;12.40;;;7.30;;
22774;SDS011;11554;51.106;3.684;2023-03-01T11:30:04;9.40;;;6.60;;
22774;SDS011;11554;51.106;3.684;2023-03-01T11:35:03;9.40;;;6.60;;
22774;SDS011;11554;51.106;3.684;2023-03-01T11:40:10;9.70;;;6.40;;
22774;SDS011;11554;51.106;3.684;2023-03-01T11:45:03;9.70;;;6.40;;
22774;SDS011;11554;51.106;3.684;2023-03-01T11:50:09;11.10;;;6.70;;
22774;SDS011;11554;51.106;3.684;2023-03-01T11:55:17;11.10;;;6.70;;
22774;SDS011;11554;51.106;3.684;2023-03-01T12:00:14;10.90;;;5.90;;
22774;SDS011;11554;51.106;3.684;2023-03-01T12:10:17;13.80;;;7.70;;
22774;SDS011;11554;51.106;3.684;2023-03-01T12:20:11;9.00;;;5.90;;
22774;SDS011;11554;51.106;3.684;2023-03-01T12:25:14;9.00;;;5.90;;
22774;SDS011;11554;51.106;3.684;2023-03-01T12:30:09;7.90;;;5.50;;
22774;SDS011;11554;51.106;3.684;2023-03-01T12:35:16;7.90;;;5.50;;
22774;SDS011;11554;51.106;3.684;2023-03-01T12:40:15;8.80;;;5.90;;
22774;SDS011;11554;51.106;3.684;2023-03-01T12:50:03;8.50;;;5.90;;
22774;SDS011;11554;51.106;3.684;2023-03-01T12:55:02;8.50;;;5.90;;
22774;SDS011;11554;51.106;3.684;2023-03-01T13:00:10;9.80;;;6.10;;
22774;SDS011;11554;51.106;3.684;2023-03-01T13:05:14;9.80;;;6.10;;
22774;SDS011;11554;51.106;3.684;2023-03-01T13:10:11;7.70;;;5.20;;
22774;SDS011;11554;51.106;3.684;2023-03-01T13:15:00;7.70;;;5.20;;
22774;SDS011;11554;51.106;3.684;2023-03-01T13:20:00;7.90;;;5.20;;
22774;SDS011;11554;51.106;3.684;2023-03-01T13:25:03;7.90;;;5.20;;
22774;SDS011;11554;51.106;3.684;2023-03-01T13:30:00;7.00;;;5.40;;
22774;SDS011;11554;51.106;3.684;2023-03-01T13:35:41;7.00;;;5.40;;
22774;SDS011;11554;51.106;3.684;2023-03-01T13:40:56;6.90;;;5.30;;
22774;SDS011;11554;51.106;3.684;2023-03-01T13:45:00;6.90;;;5.30;;
22774;SDS011;11554;51.106;3.684;2023-03-01T13:50:03;8.40;;;4.70;;
22774;SDS011;11554;51.106;3.684;2023-03-01T13:55:00;8.40;;;4.70;;
22774;SDS011;11554;51.106;3.684;2023-03-01T14:00:00;9.70;;;5.30;;
22774;SDS011;11554;51.106;3.684;2023-03-01T14:05:01;9.70;;;5.30;;
22774;SDS011;11554;51.106;3.684;2023-03-01T14:10:02;9.80;;;5.80;;
22774;SDS011;11554;51.106;3.684;2023-03-01T14:15:02;9.80;;;5.80;;
22774;SDS011;11554;51.106;3.684;2023-03-01T14:20:02;7.90;;;5.80;;
22774;SDS011;11554;51.106;3.684;2023-03-01T14:25:02;7.90;;;5.80;;
22774;SDS011;11554;51.106;3.684;2023-03-01T14:30:02;9.50;;;5.40;;
22774;SDS011;11554;51.106;3.684;2023-03-01T14:35:00;9.50;;;5.40;;
22774;SDS011;11554;51.106;3.684;2023-03-01T14:40:02;8.40;;;5.10;;
22774;SDS011;11554;51.106;3.684;2023-03-01T14:45:01;8.40;;;5.10;;
22774;SDS011;11554;51.106;3.684;2023-03-01T14:50:03;10.60;;;5.50;;
22774;SDS011;11554;51.106;3.684;2023-03-01T14:55:02;10.60;;;5.50;;
22774;SDS011;11554;51.106;3.684;2023-03-01T15:00:03;8.20;;;5.30;;
22774;SDS011;11554;51.106;3.684;2023-03-01T15:05:03;8.20;;;5.30;;
22774;SDS011;11554;51.106;3.684;2023-03-01T15:10:02;8.40;;;5.50;;
22774;SDS011;11554;51.106;3.684;2023-03-01T15:15:00;8.40;;;5.50;;
22774;SDS011;11554;51.106;3.684;2023-03-01T15:20:02;9.50;;;6.00;;
22774;SDS011;11554;51.106;3.684;2023-03-01T15:25:00;9.50;;;6.00;;
22774;SDS011;11554;51.106;3.684;2023-03-01T15:30:02;8.40;;;6.20;;
22774;SDS011;11554;51.106;3.684;2023-03-01T15:40:00;7.80;;;5.60;;
22774;SDS011;11554;51.106;3.684;2023-03-01T15:45:09;7.80;;;5.60;;
22774;SDS011;11554;51.106;3.684;2023-03-01T15:50:01;10.00;;;7.00;;
22774;SDS011;11554;51.106;3.684;2023-03-01T15:55:03;10.00;;;7.00;;
22774;SDS011;11554;51.106;3.684;2023-03-01T16:00:00;9.20;;;6.60;;
22774;SDS011;11554;51.106;3.684;2023-03-01T16:05:00;9.20;;;6.60;;
22774;SDS011;11554;51.106;3.684;2023-03-01T16:10:00;8.80;;;6.50;;
22774;SDS011;11554;51.106;3.684;2023-03-01T16:15:00;8.80;;;6.50;;
22774;SDS011;11554;51.106;3.684;2023-03-01T16:20:00;10.60;;;7.10;;
22774;SDS011;11554;51.106;3.684;2023-03-01T16:25:00;10.60;;;7.10;;
22774;SDS011;11554;51.106;3.684;2023-03-01T16:30:00;10.00;;;6.40;;
22774;SDS011;11554;51.106;3.684;2023-03-01T16:35:00;10.00;;;6.40;;
22774;SDS011;11554;51.106;3.684;2023-03-01T16:40:00;10.50;;;7.60;;
22774;SDS011;11554;51.106;3.684;2023-03-01T16:45:00;10.50;;;7.60;;
22774;SDS011;11554;51.106;3.684;2023-03-01T16:50:00;11.90;;;7.50;;
22774;SDS011;11554;51.106;3.684;2023-03-01T16:55:01;11.90;;;7.50;;
22774;SDS011;11554;51.106;3.684;2023-03-01T17:00:00;11.40;;;7.70;;
22774;SDS011;11554;51.106;3.684;2023-03-01T17:05:00;11.40;;;7.70;;
22774;SDS011;11554;51.106;3.684;2023-03-01T17:10:00;10.80;;;7.90;;
22774;SDS011;11554;51.106;3.684;2023-03-01T17:15:00;10.80;;;7.90;;
22774;SDS011;11554;51.106;3.684;2023-03-01T17:20:00;14.40;;;8.70;;
22774;SDS011;11554;51.106;3.684;2023-03-01T17:25:00;14.40;;;8.70;;
22774;SDS011;11554;51.106;3.684;2023-03-01T17:30:00;12.30;;;8.80;;
22774;SDS011;11554;51.106;3.684;2023-03-01T17:35:00;12.30;;;8.80;;
22774;SDS011;11554;51.106;3.684;2023-03-01T17:40:00;17.80;;;10.70;;
22774;SDS011;11554;51.106;3.684;2023-03-01T17:45:00;17.80;;;10.70;;
22774;SDS011;11554;51.106;3.684;2023-03-01T17:50:00;16.50;;;11.20;;
22774;SDS011;11554;51.106;3.684;2023-03-01T17:55:00;16.50;;;11.20;;
22774;SDS011;11554;51.106;3.684;2023-03-01T18:00:00;19.70;;;12.10;;
22774;SDS011;11554;51.106;3.684;2023-03-01T18:05:00;19.70;;;12.10;;
22774;SDS011;11554;51.106;3.684;2023-03-01T18:10:00;27.30;;;14.00;;
22774;SDS011;11554;51.106;3.684;2023-03-01T18:15:00;27.30;;;14.00;;
22774;SDS011;11554;51.106;3.684;2023-03-01T18:20:00;23.00;;;13.20;;
22774;SDS011;11554;51.106;3.684;2023-03-01T18:25:00;23.00;;;13.20;;
22774;SDS011;11554;51.106;3.684;2023-03-01T18:30:00;19.00;;;10.40;;
22774;SDS011;11554;51.106;3.684;2023-03-01T18:35:00;19.00;;;10.40;;
22774;SDS011;11554;51.106;3.684;2023-03-01T18:40:00;12.60;;;7.70;;
22774;SDS011;11554;51.106;3.684;2023-03-01T18:45:00;12.60;;;7.70;;
22774;SDS011;11554;51.106;3.684;2023-03-01T18:50:00;11.00;;;7.80;;
22774;SDS011;11554;51.106;3.684;2023-03-01T18:55:00;11.00;;;7.80;;
22774;SDS011;11554;51.106;3.684;2023-03-01T19:00:00;12.30;;;7.80;;
22774;SDS011;11554;51.106;3.684;2023-03-01T19:05:00;12.30;;;7.80;;
22774;SDS011;11554;51.106;3.684;2023-03-01T19:10:00;14.70;;;9.00;;
22774;SDS011;11554;51.106;3.684;2023-03-01T19:15:00;14.70;;;9.00;;
22774;SDS011;11554;51.106;3.684;2023-03-01T19:20:00;12.60;;;9.50;;
22774;SDS011;11554;51.106;3.684;2023-03-01T19:25:00;12.60;;;9.50;;
22774;SDS011;11554;51.106;3.684;2023-03-01T19:30:00;23.60;;;14.80;;
22774;SDS011;11554;51.106;3.684;2023-03-01T19:35:00;23.60;;;14.80;;
22774;SDS011;11554;51.106;3.684;2023-03-01T19:40:00;18.80;;;11.60;;
22774;SDS011;11554;51.106;3.684;2023-03-01T19:45:00;18.80;;;11.60;;
22774;SDS011;11554;51.106;3.684;2023-03-01T19:50:00;17.90;;;9.30;;
22774;SDS011;11554;51.106;3.684;2023-03-01T19:55:00;17.90;;;9.30;;
22774;SDS011;11554;51.106;3.684;2023-03-01T20:00:00;17.50;;;10.30;;
22774;SDS011;11554;51.106;3.684;2023-03-01T20:05:00;17.50;;;10.30;;
22774;SDS011;11554;51.106;3.684;2023-03-01T20:10:01;15.30;;;9.90;;
22774;SDS011;11554;51.106;3.684;2023-03-01T20:15:00;15.30;;;9.90;;
22774;SDS011;11554;51.106;3.684;2023-03-01T20:20:00;16.50;;;10.40;;
22774;SDS011;11554;51.106;3.684;2023-03-01T20:25:00;16.50;;;10.40;;
22774;SDS011;11554;51.106;3.684;2023-03-01T20:30:00;19.30;;;11.00;;
22774;SDS011;11554;51.106;3.684;2023-03-01T20:35:00;19.30;;;11.00;;
22774;SDS011;11554;51.106;3.684;2023-03-01T20:40:00;19.80;;;11.90;;
22774;SDS011;11554;51.106;3.684;2023-03-01T20:45:00;19.80;;;11.90;;
22774;SDS011;11554;51.106;3.684;2023-03-01T20:50:00;19.60;;;11.60;;
22774;SDS011;11554;51.106;3.684;2023-03-01T20:55:00;19.60;;;11.60;;
22774;SDS011;11554;51.106;3.684;2023-03-01T21:00:00;18.20;;;10.70;;
22774;SDS011;11554;51.106;3.684;2023-03-01T21:05:00;18.20;;;10.70;;
22774;SDS011;11554;51.106;3.684;2023-03-01T21:10:00;21.90;;;13.30;;
22774;SDS011;11554;51.106;3.684;2023-03-01T21:15:00;21.90;;;13.30;;
22774;SDS011;11554;51.106;3.684;2023-03-01T21:20:00;17.60;;;11.10;;
22774;SDS011;11554;51.106;3.684;2023-03-01T21:25:00;17.60;;;11.10;;
22774;SDS011;11554;51.106;3.684;2023-03-01T21:30:00;17.00;;;11.00;;
22774;SDS011;11554;51.106;3.684;2023-03-01T21:35:00;17.00;;;11.00;;
22774;SDS011;11554;51.106;3.684;2023-03-01T21:40:00;19.20;;;10.60;;
22774;SDS011;11554;51.106;3.684;2023-03-01T21:45:00;19.20;;;10.60;;
22774;SDS011;11554;51.106;3.684;2023-03-01T21:50:00;14.90;;;9.90;;
22774;SDS011;11554;51.106;3.684;2023-03-01T21:55:00;14.90;;;9.90;;
22774;SDS011;11554;51.106;3.684;2023-03-01T22:00:00;15.60;;;10.20;;
22774;SDS011;11554;51.106;3.684;2023-03-01T22:05:00;15.60;;;10.20;;
22774;SDS011;11554;51.106;3.684;2023-03-01T22:10:00;16.20;;;9.90;;
22774;SDS011;11554;51.106;3.684;2023-03-01T22:15:00;16.20;;;9.90;;
22774;SDS011;11554;51.106;3.684;2023-03-01T22:20:00;25.00;;;16.10;;
22774;SDS011;11554;51.106;3.684;2023-03-01T22:25:00;25.00;;;16.10;;
22774;SDS011;11554;51.106;3.684;2023-03-01T22:30:00;18.80;;;12.00;;
22774;SDS011;11554;51.106;3.684;2023-03-01T22:35:00;18.80;;;12.00;;
22774;SDS011;11554;51.106;3.684;2023-03-01T22:40:00;15.80;;;9.60;;
22774;SDS011;11554;51.106;3.684;2023-03-01T22:45:00;15.80;;;9.60;;
22774;SDS011;11554;51.106;3.684;2023-03-01T22:50:00;13.20;;;8.40;;
22774;SDS011;11554;51.106;3.684;2023-03-01T22:55:00;13.20;;;8.40;;
22774;SDS011;11554;51.106;3.684;2023-03-01T23:00:00;15.90;;;10.20;;
22774;SDS011;11554;51.106;3.684;2023-03-01T23:05:00;15.90;;;10.20;;
22774;SDS011;11554;51.106;3.684;2023-03-01T23:10:00;15.40;;;9.80;;
22774;SDS011;11554;51.106;3.684;2023-03-01T23:15:00;15.40;;;9.80;;
22774;SDS011;11554;51.106;3.684;2023-03-01T23:20:00;21.40;;;13.20;;
22774;SDS011;11554;51.106;3.684;2023-03-01T23:25:00;21.40;;;13.20;;
22774;SDS011;11554;51.106;3.684;2023-03-01T23:30:00;19.60;;;12.30;;
22774;SDS011;11554;51.106;3.684;2023-03-01T23:35:00;19.60;;;12.30;;
22774;SDS011;11554;51.106;3.684;2023-03-01T23:40:00;15.20;;;9.40;;
22774;SDS011;11554;51.106;3.684;2023-03-01T23:45:00;15.20;;;9.40;;
22774;SDS011;11554;51.106;3.684;2023-03-01T23:50:00;16.90;;;10.20;;
22774;SDS011;11554;51.106;3.684;2023-03-01T23:55:00;16.90;;;10.20;;
